• Join FlightAware (Why Join?)
  • Login
  • US Flag 
05:13AM EDT


 

Airport Tracker/Info


-or-


 

Live Flight TrackerFlight Track Log ✈ JBU41 ✈ 22-May-2013 ✈ KJFK - KMCO

Flight Track Log - Related Links

Times and Time Zones

All times are in EDT time to prevent confusion due to time zone crossing. See the JBU41 flight status page for this flight to view local times or setup timezone preferences in your user account.

Time Position Orientation Groundspeed Altitude Reporting Facility
EDT Latitude Longitude Course Direction KTS MPH feet Rate Location/Type
11:01AM 40.6167 -73.7833 146° Southeast 166 191 900  Level New York TRACON
11:02AM 40.5667 -73.8333 217° Southwest 211 243 2,200 1,860 Climbing New York TRACON
11:03AM 40.5167 -73.8000 153° Southeast 282 325 4,700 1,380 Climbing New York TRACON
11:04AM 40.5500 -73.7167 62° Northeast 287 330 5,000 1,260 Climbing New York TRACON
11:05AM 40.2499 -73.3999 143° Southeast  Level FlightAware Approximate
11:05AM 40.6167 -73.6500 37° Northeast 299 344 7,300  Level New York TRACON
11:06AM 40.1492 -73.3085 146° Southeast  Level FlightAware Approximate
11:06AM 40.6000 -73.5333 101° East 316 364 10,100  Level New York TRACON
11:07AM 40.5500 -73.4500 128° Southeast 322 371 12,000 900 Climbing New York TRACON
11:10AM 40.3458 -73.4481 180° South 320 368 13,300 1,080 Climbing New York Center
11:11AM 40.2594 -73.4064 160° South 350 403 15,900 1,860 Climbing New York Center
11:13AM 40.0233 -73.3347 167° South 366 421 19,800 1,620 Climbing Washington Center
11:14AM 39.9378 -73.4350 222° Southwest 351 404 21,600 1,560 Climbing Washington Center
11:15AM 39.8519 -73.5319 221° Southwest 384 442 23,000 1,320 Climbing Washington Center
11:16AM 39.7642 -73.6292 220° Southwest 409 471 24,300 1,260 Climbing Washington Center
11:17AM 39.6697 -73.7314 220° Southwest 428 493 25,600 1,140 Climbing Washington Center
11:18AM 39.5756 -73.8389 221° Southwest 442 509 26,600 900 Climbing Washington Center
11:19AM 39.4711 -73.9544 221° Southwest 450 518 27,400 900 Climbing Washington Center
11:20AM 39.3725 -74.0639 221° Southwest 467 537 28,400 1,320 Climbing Washington Center
11:21AM 39.2694 -74.1708 219° Southwest 472 543 30,200 1,320 Climbing Washington Center
11:22AM 39.1747 -74.2744 220° Southwest 470 541 31,100 960 Climbing Washington Center
11:23AM 39.0719 -74.3883 221° Southwest 470 541 32,100 960 Climbing Washington Center
11:24AM 38.9708 -74.4997 221° Southwest 476 548 33,100 1,020 Climbing Washington Center
11:25AM 38.8694 -74.6050 219° Southwest 481 554 34,200 960 Climbing Washington Center
11:26AM 38.7683 -74.7131 220° Southwest 481 554 35,100 780 Climbing Washington Center
11:27AM 38.6689 -74.8206 220° Southwest 476 548 35,900 420 Climbing Washington Center
11:28AM 38.5694 -74.9278 220° Southwest 476 548 36,000 240 Climbing Washington Center
11:29AM 38.4658 -75.0350 219° Southwest 476 548 36,500 600 Climbing Washington Center
11:30AM 38.3683 -75.1417 221° Southwest 476 548 37,300 660 Climbing Washington Center
11:31AM 38.2811 -75.2400 222° Southwest 476 548 37,900 300 Climbing Washington Center
11:32AM 38.1792 -75.3408 218° Southwest 476 548 38,000  Climbing Washington Center
11:33AM 38.0772 -75.4414 218° Southwest 476 548 38,000  Level Washington Center
11:34AM 37.9644 -75.5258 211° Southwest 476 548 38,000  Level Washington Center
11:35AM 37.8458 -75.5997 206° Southwest 471 542 38,000 -60 Level Washington Center
11:36AM 37.7289 -75.6653 204° Southwest 471 542 37,900  Descending Washington Center
11:37AM 37.6100 -75.7361 205° Southwest 466 536 38,000  Climbing Washington Center
11:38AM 37.4908 -75.8064 205° Southwest 466 536 38,000  Level Washington Center
11:39AM 37.3739 -75.8742 205° Southwest 466 536 38,000  Level Washington Center
11:40AM 37.2550 -75.9442 205° Southwest 466 536 38,000  Level Washington Center
11:41AM 37.1358 -76.0164 206° Southwest 466 536 38,000  Level Washington Center
11:42AM 37.0167 -76.0886 206° Southwest 466 536 38,000  Level Washington Center
11:43AM 36.8892 -76.1528 202° Southwest 478 550 38,000  Level Washington Center
11:44AM 36.7656 -76.2219 204° Southwest 486 559 38,000  Level Washington Center
11:45AM 36.6358 -76.3011 206° Southwest 479 551 38,000  Level Washington Center
11:46AM 36.5144 -76.3725 205° Southwest 479 551 38,000  Level Washington Center
11:47AM 36.3931 -76.4408 204° Southwest 479 551 38,000  Level Washington Center
11:48AM 36.2775 -76.5194 209° Southwest 484 557 38,000  Level Washington Center
11:49AM 36.1622 -76.6056 211° Southwest 484 557 38,000  Level Washington Center
11:50AM 36.0447 -76.6889 210° Southwest 489 563 38,000  Level Washington Center
11:51AM 35.9292 -76.7694 209° Southwest 489 563 38,000  Level Washington Center
11:52AM 35.8136 -76.8522 210° Southwest 489 563 38,000  Level Washington Center
11:53AM 35.6978 -76.9347 210° Southwest 489 563 38,000  Level Washington Center
11:54AM 35.5947 -77.0097 211° Southwest 489 563 38,000  Level Washington Center
11:55AM 35.4789 -77.0919 210° Southwest 489 563 38,000  Level Washington Center
11:56AM 35.3611 -77.1736 209° Southwest 489 563 38,000  Level Washington Center
11:57AM 35.2347 -77.2628 210° Southwest 489 563 38,000  Level Washington Center
11:58AM 35.1189 -77.3442 210° Southwest 489 563 38,000  Level Washington Center
11:59AM 35.0028 -77.4228 209° Southwest 489 563 38,000  Level Washington Center
12:00PM 34.8869 -77.5036 210° Southwest 489 563 38,000 -60 Level Washington Center
12:01PM 34.7897 -77.5747 211° Southwest 479 551 37,900 -60 Descending Washington Center
12:02PM 34.6756 -77.6528 209° Southwest 474 545 37,900  Level Washington Center
12:03PM 34.5658 -77.7308 210° Southwest 474 545 38,000  Climbing Washington Center
12:04PM 34.4539 -77.8058 209° Southwest 474 545 38,000  Level Washington Center
12:05PM 34.3400 -77.8758 207° Southwest 467 537 38,000  Level Washington Center
12:06PM 34.2014 -77.9172 194° South 466 536 38,000  Level Washington Center
12:08PM 33.9828 -77.9792 193° South 479 551 38,000  Level Jacksonville Center
12:09PM 33.8653 -78.0156 194° South 465 535 38,000  Level Jacksonville Center
12:10PM 33.7414 -78.0500 193° South 453 521 38,000  Level Jacksonville Center
12:11PM 33.6094 -78.0897 194° South 448 516 38,000  Level Jacksonville Center
12:12PM 33.4872 -78.1161 190° South 448 516 38,000  Level Jacksonville Center
12:13PM 33.3647 -78.1278 185° South 448 516 38,000  Level Jacksonville Center
12:14PM 33.2442 -78.1417 186° South 443 510 38,000  Level Jacksonville Center
12:15PM 33.1236 -78.1556 186° South 443 510 38,000  Level Jacksonville Center
12:16PM 33.0044 -78.1544 180° South 438 504 38,000  Level Jacksonville Center
12:17PM 32.8853 -78.1458 177° South 438 504 38,000  Level Jacksonville Center
12:18PM 32.7664 -78.1472 181° South 438 504 38,000  Level Jacksonville Center
12:19PM 32.6500 -78.1581 184° South 433 498 38,000  Level Jacksonville Center
12:20PM 32.5336 -78.1767 188° South 428 493 38,000 -60 Level Jacksonville Center
12:21PM 32.4172 -78.1875 184° South 422 486 37,900  Descending Jacksonville Center
12:22PM 32.3008 -78.1983 184° South 422 486 38,000  Climbing Jacksonville Center
12:23PM 32.1825 -78.2144 187° South 422 486 38,000  Level Jacksonville Center
12:24PM 32.0642 -78.2328 187° South 422 486 38,000  Level Jacksonville Center
12:25PM 31.9478 -78.2483 186° South 422 486 38,000  Level Jacksonville Center
12:26PM 31.8292 -78.2592 184° South 422 486 38,000  Level Jacksonville Center
12:27PM 31.7108 -78.2772 187° South 435 501 38,000 -60 Level Jacksonville Center
12:28PM 31.5925 -78.2906 185° South 433 498 37,900  Descending Jacksonville Center
12:29PM 31.4844 -78.3081 188° South 435 501 38,000  Climbing Jacksonville Center
12:30PM 31.3703 -78.3258 188° South 435 501 38,000  Level Jacksonville Center
12:31PM 31.2375 -78.3444 187° South 434 499 38,000  Level Jacksonville Center
12:32PM 31.1283 -78.3861 198° South 421 484 38,000 -60 Level Jacksonville Center
12:33PM 31.0167 -78.4206 195° South 417 480 37,900 -60 Descending Jacksonville Center
12:34PM 30.9161 -78.4639 200° South 422 486 37,900  Level Jacksonville Center
12:35PM 30.7978 -78.4889 190° South 417 480 38,000  Climbing Jacksonville Center
12:36PM 30.6769 -78.4944 182° South 427 491 37,900  Descending Jacksonville Center
12:38PM 30.4481 -78.5061 183° South 422 486 38,000  Climbing Miami Center
12:39PM 30.3269 -78.5114 182° South 432 497 38,000  Level Miami Center
12:40PM 30.2083 -78.5167 182° South 432 497 38,000 -60 Level Miami Center
12:41PM 30.0850 -78.5244 183° South 432 497 37,900 -60 Descending Miami Center
12:42PM 29.9703 -78.5297 182° South 427 491 37,900  Level Miami Center
12:43PM 29.8578 -78.5378 184° South 421 484 38,000  Climbing Miami Center
12:44PM 29.7367 -78.5431 182° South 421 484 38,000  Level Miami Center
12:45PM 29.6239 -78.5628 189° South 421 484 38,000  Level Miami Center
12:46PM 29.5128 -78.6133 202° Southwest 421 484 38,000  Level Miami Center
12:47PM 29.4200 -78.6953 218° Southwest 421 484 38,000  Level Miami Center
12:48PM 29.3433 -78.8011 230° Southwest 421 484 38,000  Level Miami Center
12:49PM 29.2958 -78.9264 247° West 421 484 38,100 -60 Climbing Miami Center
12:50PM 29.2500 -79.0517 247° West 421 484 37,900 -780 Descending Miami Center
12:51PM 29.2147 -79.1794 252° West 426 490 36,600 -1,860 Descending Miami Center
12:52PM 29.1731 -79.3044 249° West 431 496 34,200 -2,640 Descending Miami Center
12:53PM 29.1353 -79.4367 252° West 431 496 31,400 -2,580 Descending Miami Center
12:54PM 29.0911 -79.5686 249° West 438 504 29,100 -2,340 Descending Miami Center
12:55PM 29.0528 -79.7031 252° West 446 513 26,800 -2,100 Descending Miami Center
12:56PM 29.0128 -79.8347 251° West 446 513 24,900 -2,340 Descending Miami Center
12:57PM 28.9744 -79.9619 251° West 435 501 22,200 -2,460 Descending Miami Center
12:58PM 28.9364 -80.0867 251° West 430 495 20,000 -2,220 Descending Miami Center
12:59PM 28.8981 -80.2017 249° West 418 481 17,800 -2,220 Descending Miami Center
01:01PM 28.8333 -80.4000 250° West 380 437 14,100 -1,500 Descending Orlando TRACON
01:01PM 28.8333 -80.5000 270° West 361 415 14,100 -300 Level Orlando TRACON
01:02PM 28.8500 -80.6167 279° West 365 420 13,600 -1,320 Descending Orlando TRACON
01:03PM 28.8500 -80.7333 270° West 352 405 11,400 -1,920 Descending Orlando TRACON
01:04PM 28.8500 -80.8333 270° West 289 333 9,800 -1,800 Descending Orlando TRACON
01:05PM 28.8333 -80.9167 257° West 279 321 7,800 -1,440 Descending Orlando TRACON
01:06PM 28.8333 -81.0000 270° West 235 270 7,000 -900 Descending Orlando TRACON
01:07PM 28.8167 -81.0667 254° West 227 261 6,100 -480 Descending Orlando TRACON
01:08PM 28.8000 -81.1333 254° West 226 260 6,100 -60 Level Orlando TRACON
01:09PM 28.7500 -81.1833 221° Southwest 230 265 6,000 -840 Descending Orlando TRACON
01:10PM 28.7000 -81.2333 221° Southwest 224 258 4,500 -1,440 Descending Orlando TRACON
01:11PM 28.6500 -81.2667 210° Southwest 219 252 3,100 -720 Descending Orlando TRACON
01:13PM 28.5833 -81.2833 192° South 193 222 3,000 -720 Descending Orlando TRACON
01:14PM 28.5333 -81.2833 180° South 185 213 1,600 -960 Descending Orlando TRACON
01:15PM 28.4833 -81.2833 180° South 143 165 1,100 -480 Descending Orlando TRACON